createdAt,value
2022-08-26T00:02:19.316Z,94.70
2022-08-26T00:04:52.437Z,94.70
2022-08-26T00:07:19.779Z,94.50
2022-08-26T00:09:47.614Z,94.90
2022-08-26T00:12:14.842Z,94.70
2022-08-26T00:14:42.289Z,95.00
2022-08-26T00:17:12.234Z,94.90
2022-08-26T00:19:41.893Z,95.20
2022-08-26T00:22:10.951Z,94.80
2022-08-26T00:24:41.225Z,94.80
2022-08-26T00:27:17.787Z,95.50
2022-08-26T00:29:47.284Z,94.70
2022-08-26T00:32:14.896Z,95.00
2022-08-26T00:34:42.343Z,94.70
2022-08-26T00:37:14.521Z,94.80
2022-08-26T00:39:45.744Z,95.50
2022-08-26T00:42:15.155Z,96.10
2022-08-26T00:44:43.103Z,95.20
2022-08-26T00:47:31.043Z,95.00
2022-08-26T00:50:01.733Z,96.10
2022-08-26T00:52:35.822Z,96.10
2022-08-26T00:55:20.357Z,96.50
2022-08-26T00:57:50.363Z,95.40
2022-08-26T01:00:22.778Z,95.10
2022-08-26T01:02:50.998Z,95.00
2022-08-26T01:05:19.839Z,96.00
2022-08-26T01:07:47.518Z,95.30
2022-08-26T01:10:22.565Z,95.00
2022-08-26T01:13:00.639Z,95.70
2022-08-26T01:15:40.073Z,96.00
2022-08-26T01:18:11.371Z,95.10
2022-08-26T01:20:57.643Z,95.60
2022-08-26T01:23:36.166Z,95.80
2022-08-26T01:26:19.443Z,96.00
2022-08-26T01:28:53.863Z,95.30
2022-08-26T01:31:25.064Z,95.10
2022-08-26T01:34:15.225Z,95.10
2022-08-26T01:36:51.352Z,94.90
2022-08-26T01:39:19.615Z,95.00
2022-08-26T01:41:53.663Z,95.10
2022-08-26T01:44:26.250Z,94.90
2022-08-26T01:46:58.972Z,94.80
2022-08-26T01:49:27.880Z,95.10
2022-08-26T01:51:59.747Z,94.90
2022-08-26T01:54:32.097Z,95.20
2022-08-26T01:57:01.289Z,95.10
2022-08-26T01:59:30.287Z,95.00
2022-08-26T02:01:58.042Z,95.20
2022-08-26T02:04:37.788Z,95.60
2022-08-26T02:07:09.648Z,95.00
2022-08-26T02:09:41.640Z,95.30
2022-08-26T02:12:14.213Z,95.50
2022-08-26T02:14:50.145Z,95.10
2022-08-26T02:17:21.347Z,94.90
2022-08-26T02:19:50.259Z,94.80
2022-08-26T02:22:22.732Z,94.80
2022-08-26T02:25:32.211Z,94.80
2022-08-26T02:28:02.186Z,94.80
2022-08-26T02:30:33.495Z,94.80
2022-08-26T02:33:07.071Z,94.80
2022-08-26T02:35:36.344Z,94.90
2022-08-26T02:38:11.196Z,95.10
2022-08-26T02:40:42.199Z,94.80
2022-08-26T02:43:12.555Z,94.80
2022-08-26T02:45:44.628Z,94.80
2022-08-26T02:48:21.206Z,94.80
2022-08-26T02:50:52.589Z,94.90
2022-08-26T02:53:25.006Z,95.10
2022-08-26T02:55:55.518Z,95.00
2022-08-26T02:58:24.971Z,95.10
2022-08-26T03:00:53.819Z,94.90
2022-08-26T03:03:23.738Z,95.00
2022-08-26T03:05:56.574Z,95.10
2022-08-26T03:08:23.958Z,95.00
2022-08-26T03:10:55.163Z,95.40
2022-08-26T03:13:23.158Z,95.10
2022-08-26T03:15:50.381Z,95.10
2022-08-26T03:18:22.217Z,95.10
2022-08-26T03:20:51.190Z,96.00
2022-08-26T03:23:20.886Z,95.40
2022-08-26T03:25:53.787Z,95.20
2022-08-26T03:28:21.067Z,95.20
2022-08-26T03:30:50.796Z,95.10
2022-08-26T03:33:20.219Z,95.10
2022-08-26T03:35:52.450Z,95.30
2022-08-26T03:38:25.100Z,95.20
2022-08-26T03:40:52.590Z,95.20
2022-08-26T03:43:20.021Z,95.10
2022-08-26T03:45:47.218Z,95.10
2022-08-26T03:48:14.609Z,95.10
2022-08-26T03:50:44.838Z,95.20
2022-08-26T03:53:16.710Z,95.00
2022-08-26T03:55:51.933Z,95.10
2022-08-26T03:58:20.595Z,95.60
2022-08-26T04:00:48.112Z,95.10
2022-08-26T04:03:41.400Z,95.20
2022-08-26T04:06:09.127Z,95.20
2022-08-26T04:08:37.541Z,95.10
2022-08-26T04:11:16.260Z,95.10
2022-08-26T04:13:43.783Z,95.20
2022-08-26T04:16:14.140Z,95.10
2022-08-26T04:18:46.474Z,95.30
2022-08-26T04:21:15.164Z,95.10
2022-08-26T04:23:47.758Z,95.30
2022-08-26T04:26:16.843Z,95.20
2022-08-26T04:28:44.130Z,95.50
2022-08-26T04:31:14.649Z,95.10
2022-08-26T04:33:44.302Z,95.20
2022-08-26T04:36:15.885Z,95.20
2022-08-26T04:38:46.429Z,95.20
2022-08-26T04:41:15.418Z,95.20
2022-08-26T04:43:47.467Z,95.10
2022-08-26T04:46:22.606Z,95.30
2022-08-26T04:48:51.967Z,95.20
2022-08-26T04:51:20.947Z,95.20
2022-08-26T04:53:48.495Z,95.20
2022-08-26T04:56:19.932Z,95.10
2022-08-26T04:58:49.519Z,95.20
2022-08-26T05:01:17.035Z,95.20
2022-08-26T05:03:46.642Z,95.20
2022-08-26T05:06:19.656Z,95.30
2022-08-26T05:08:51.628Z,95.50
2022-08-26T05:11:22.682Z,95.30
2022-08-26T05:13:50.264Z,95.40
2022-08-26T05:16:17.651Z,95.30
2022-08-26T05:18:46.274Z,95.50
2022-08-26T05:21:20.039Z,95.30
2022-08-26T05:23:51.433Z,95.30
2022-08-26T05:26:23.051Z,95.30
2022-08-26T05:28:57.261Z,95.50
2022-08-26T05:31:27.912Z,95.50
2022-08-26T05:33:57.676Z,96.10
2022-08-26T05:36:27.570Z,95.80
2022-08-26T05:38:58.441Z,95.50
2022-08-26T05:41:36.563Z,95.60
2022-08-26T05:44:08.639Z,95.70
2022-08-26T05:46:36.947Z,95.50
2022-08-26T05:49:12.849Z,96.10
2022-08-26T05:51:43.017Z,95.60
2022-08-26T05:54:10.688Z,96.30
2022-08-26T05:56:39.481Z,95.70
2022-08-26T05:59:10.896Z,95.60
2022-08-26T06:01:43.657Z,95.80
2022-08-26T06:04:14.022Z,95.70
2022-08-26T06:06:45.022Z,95.60
2022-08-26T06:09:14.664Z,96.10
2022-08-26T06:11:51.739Z,96.10
2022-08-26T06:14:21.384Z,95.80
2022-08-26T06:16:48.597Z,95.80
2022-08-26T06:19:18.270Z,95.90
2022-08-26T06:21:47.421Z,96.20
2022-08-26T06:24:42.651Z,96.10
2022-08-26T06:27:15.160Z,96.20
2022-08-26T06:29:44.714Z,96.00
2022-08-26T06:32:11.969Z,95.90
2022-08-26T06:34:43.915Z,95.90
2022-08-26T06:37:14.085Z,96.00
2022-08-26T06:39:43.815Z,96.10
2022-08-26T06:42:15.543Z,96.50
2022-08-26T06:44:47.457Z,96.50
2022-08-26T06:47:17.471Z,96.10
2022-08-26T06:49:44.618Z,96.50
2022-08-26T06:52:11.862Z,96.10
2022-08-26T06:54:43.109Z,96.00
2022-08-26T06:57:12.612Z,96.10
2022-08-26T06:59:41.575Z,96.20
2022-08-26T07:02:13.472Z,96.20
2022-08-26T07:04:48.080Z,96.20
2022-08-26T07:07:22.011Z,96.30
2022-08-26T07:09:49.426Z,96.20
2022-08-26T07:12:20.549Z,96.90
2022-08-26T07:14:48.454Z,96.20
2022-08-26T07:17:20.462Z,96.20
2022-08-26T07:19:48.935Z,96.20
2022-08-26T07:22:18.805Z,96.20
2022-08-26T07:24:46.016Z,96.20
2022-08-26T07:27:18.790Z,96.30
2022-08-26T07:29:48.630Z,96.20
2022-08-26T07:32:19.265Z,96.20
2022-08-26T07:34:46.495Z,96.40
2022-08-26T07:37:14.327Z,96.30
2022-08-26T07:39:43.126Z,96.50
2022-08-26T07:42:15.182Z,96.30
2022-08-26T07:44:43.109Z,96.30
2022-08-26T07:47:24.899Z,96.50
2022-08-26T07:49:56.745Z,96.40
2022-08-26T07:52:27.203Z,96.50
2022-08-26T07:54:56.601Z,96.40
2022-08-26T07:57:24.605Z,96.60
2022-08-26T07:59:54.050Z,96.50
2022-08-26T08:02:23.943Z,96.50
2022-08-26T08:04:54.598Z,96.60
2022-08-26T08:07:44.415Z,96.50
2022-08-26T08:10:20.833Z,96.50
2022-08-26T08:12:52.462Z,96.50
2022-08-26T08:15:25.273Z,96.60
2022-08-26T08:17:53.072Z,96.50
2022-08-26T08:20:22.211Z,96.50
2022-08-26T08:22:51.560Z,96.60
2022-08-26T08:25:21.866Z,96.50
2022-08-26T08:27:49.666Z,96.80
2022-08-26T08:30:22.941Z,96.60
2022-08-26T08:32:55.937Z,96.80
2022-08-26T08:35:26.443Z,96.70
2022-08-26T08:37:57.143Z,96.60
2022-08-26T08:40:29.293Z,96.70
2022-08-26T08:43:06.405Z,96.70
2022-08-26T08:45:47.079Z,96.70
2022-08-26T08:48:35.493Z,96.70
2022-08-26T08:51:34.562Z,96.70
2022-08-26T08:54:02.715Z,96.80
2022-08-26T08:57:02.835Z,96.70
2022-08-26T08:59:38.397Z,96.70
2022-08-26T09:02:33.754Z,96.60
2022-08-26T09:05:40.125Z,96.70
2022-08-26T09:08:28.341Z,96.70
2022-08-26T09:11:00.859Z,96.60
2022-08-26T09:13:29.318Z,96.70
2022-08-26T09:16:07.304Z,96.60
2022-08-26T09:19:07.864Z,96.60
2022-08-26T09:21:37.139Z,96.50
2022-08-26T09:24:07.377Z,96.60
2022-08-26T09:26:48.095Z,96.60
2022-08-26T09:31:54.759Z,96.70
2022-08-26T09:34:28.103Z,96.60
2022-08-26T09:36:57.872Z,96.60
2022-08-26T09:39:29.590Z,96.60
2022-08-26T09:42:14.193Z,96.60
2022-08-26T09:45:04.304Z,96.60
2022-08-26T09:47:40.551Z,96.60
2022-08-26T09:50:29.108Z,96.60
2022-08-26T09:53:14.881Z,96.50
2022-08-26T09:55:51.155Z,96.50
2022-08-26T09:58:41.937Z,96.50
2022-08-26T10:01:24.084Z,96.50
2022-08-26T10:03:54.207Z,96.50
2022-08-26T10:06:28.412Z,96.60
2022-08-26T10:08:59.080Z,96.50
2022-08-26T10:11:47.897Z,96.50
2022-08-26T10:14:26.577Z,96.50
2022-08-26T10:17:01.212Z,96.50
2022-08-26T10:19:56.986Z,96.50
2022-08-26T10:22:33.282Z,96.50
2022-08-26T10:25:05.551Z,96.50
2022-08-26T10:27:49.761Z,96.50
2022-08-26T10:30:24.394Z,96.40
2022-08-26T10:33:09.277Z,96.40
2022-08-26T10:35:48.397Z,96.40
2022-08-26T10:38:19.648Z,96.40
2022-08-26T10:40:56.229Z,96.40
2022-08-26T10:43:29.775Z,96.40
2022-08-26T10:46:06.877Z,96.40
2022-08-26T10:48:59.991Z,96.30
2022-08-26T10:51:36.514Z,96.30
2022-08-26T10:54:22.615Z,96.50
2022-08-26T10:57:17.338Z,96.30
2022-08-26T10:59:58.476Z,96.30
2022-08-26T11:02:25.785Z,96.30
2022-08-26T11:05:18.589Z,96.20
2022-08-26T11:07:56.047Z,96.10
2022-08-26T11:10:24.324Z,96.10
2022-08-26T11:13:03.542Z,96.10
2022-08-26T11:15:30.736Z,96.10
2022-08-26T11:18:04.134Z,96.20
2022-08-26T11:20:46.055Z,96.20
2022-08-26T11:23:20.517Z,96.20
2022-08-26T11:26:11.731Z,96.20
2022-08-26T11:28:50.187Z,96.20
2022-08-26T11:31:26.833Z,96.20
2022-08-26T11:34:07.078Z,96.00
2022-08-26T11:36:54.177Z,95.90
2022-08-26T11:39:24.923Z,95.90
2022-08-26T11:41:54.426Z,96.00
2022-08-26T11:44:29.483Z,96.10
2022-08-26T11:47:01.334Z,96.20
2022-08-26T11:49:31.498Z,96.10
2022-08-26T11:52:20.763Z,96.20
2022-08-26T11:55:07.813Z,96.20
2022-08-26T11:57:53.090Z,96.10
2022-08-26T12:00:46.178Z,96.00
2022-08-26T12:03:19.426Z,96.10
2022-08-26T12:05:49.787Z,96.10
2022-08-26T12:08:21.716Z,96.20
2022-08-26T12:11:01.377Z,96.00
2022-08-26T12:13:29.323Z,95.90
2022-08-26T12:16:00.342Z,95.90
2022-08-26T12:18:31.701Z,95.80
2022-08-26T12:21:18.945Z,95.80
2022-08-26T12:23:51.348Z,95.80
2022-08-26T12:26:30.275Z,95.90
2022-08-26T12:29:10.017Z,95.80
2022-08-26T12:31:49.930Z,95.80
2022-08-26T12:34:19.746Z,95.80
2022-08-26T12:36:54.642Z,95.80
2022-08-26T12:39:40.156Z,95.80
2022-08-26T12:42:15.529Z,95.60
2022-08-26T12:45:01.580Z,95.90
2022-08-26T12:47:42.868Z,95.60
2022-08-26T12:50:21.197Z,95.60
2022-08-26T12:52:56.579Z,95.60
2022-08-26T12:55:25.897Z,95.30
2022-08-26T12:58:15.982Z,95.60
2022-08-26T13:00:50.982Z,95.80
2022-08-26T13:03:32.421Z,96.00
2022-08-26T13:06:25.867Z,95.90
2022-08-26T13:09:00.211Z,95.80
2022-08-26T13:11:55.073Z,95.80
2022-08-26T13:14:26.521Z,95.70
2022-08-26T13:16:56.246Z,95.70
2022-08-26T13:19:26.128Z,95.80
2022-08-26T13:21:56.365Z,95.80
2022-08-26T13:24:32.592Z,95.90
2022-08-26T13:27:00.938Z,95.60
2022-08-26T13:29:30.311Z,95.70
2022-08-26T13:32:01.303Z,95.50
2022-08-26T13:34:29.843Z,95.50
2022-08-26T13:37:02.548Z,95.30
2022-08-26T13:39:30.296Z,95.40
2022-08-26T13:41:57.770Z,95.50
2022-08-26T13:44:24.973Z,95.20
2022-08-26T13:46:52.474Z,95.30
2022-08-26T13:49:19.696Z,95.20
2022-08-26T13:51:46.891Z,95.20
2022-08-26T13:54:14.195Z,95.20
2022-08-26T13:56:43.977Z,95.30
2022-08-26T13:59:11.197Z,95.30
2022-08-26T14:01:40.023Z,95.30
2022-08-26T14:04:08.379Z,95.30
2022-08-26T14:06:37.895Z,95.20
2022-08-26T14:09:11.545Z,95.00
2022-08-26T14:11:50.945Z,95.00
2022-08-26T14:14:22.185Z,95.00
2022-08-26T14:17:00.069Z,95.10
2022-08-26T14:19:31.484Z,95.10
2022-08-26T14:22:01.055Z,95.20
2022-08-26T14:24:31.273Z,94.90
2022-08-26T14:27:00.962Z,95.00
2022-08-26T14:29:28.319Z,94.90
2022-08-26T14:31:57.846Z,94.70
2022-08-26T14:34:25.424Z,94.80
2022-08-26T14:36:55.028Z,94.80
2022-08-26T14:39:29.355Z,94.70
2022-08-26T14:41:56.989Z,94.80
2022-08-26T14:44:30.525Z,94.50
2022-08-26T14:47:02.125Z,94.60
2022-08-26T14:49:34.814Z,94.60
2022-08-26T14:52:02.826Z,94.50
2022-08-26T14:54:30.174Z,94.40
2022-08-26T14:57:01.869Z,94.70
2022-08-26T14:59:33.446Z,94.40
2022-08-26T15:02:05.460Z,94.50
2022-08-26T15:04:38.077Z,94.40
2022-08-26T15:07:09.602Z,94.50
2022-08-26T15:09:43.648Z,94.20
2022-08-26T15:12:10.899Z,94.30
2022-08-26T15:14:38.259Z,94.20
2022-08-26T15:17:10.587Z,94.10
2022-08-26T15:19:43.093Z,93.80
2022-08-26T15:22:10.396Z,94.10
2022-08-26T15:24:39.747Z,94.30
2022-08-26T15:27:07.276Z,94.40
2022-08-26T15:29:37.457Z,94.40
2022-08-26T15:32:05.365Z,94.60
2022-08-26T15:34:35.573Z,94.40
2022-08-26T15:37:06.393Z,94.60
2022-08-26T15:39:34.904Z,94.20
2022-08-26T15:42:04.904Z,93.80
2022-08-26T15:44:34.353Z,93.90
2022-08-26T15:47:04.652Z,94.10
2022-08-26T15:49:34.755Z,93.90
2022-08-26T15:52:06.374Z,93.80
2022-08-26T15:54:36.374Z,94.00
2022-08-26T15:57:09.486Z,94.00
2022-08-26T15:59:38.712Z,93.80
2022-08-26T16:02:08.241Z,94.10
2022-08-26T16:04:35.503Z,93.80
2022-08-26T16:07:04.391Z,93.60
2022-08-26T16:09:34.122Z,94.00
2022-08-26T16:12:08.823Z,93.90
2022-08-26T16:14:36.517Z,93.80
2022-08-26T16:17:08.660Z,93.80
2022-08-26T16:19:43.285Z,93.80
2022-08-26T16:22:14.884Z,93.80
2022-08-26T16:24:44.772Z,94.00
2022-08-26T16:27:13.031Z,93.50
2022-08-26T16:29:45.426Z,93.40
2022-08-26T16:32:12.635Z,93.30
2022-08-26T16:34:56.042Z,93.30
2022-08-26T16:37:26.289Z,93.50
2022-08-26T16:39:53.533Z,93.50
2022-08-26T16:42:20.804Z,93.30
2022-08-26T16:44:48.052Z,93.00
2022-08-26T16:47:18.472Z,93.30
2022-08-26T16:49:46.775Z,93.20
2022-08-26T16:52:14.242Z,93.30
2022-08-26T16:54:45.917Z,93.30
2022-08-26T16:57:18.001Z,93.40
2022-08-26T16:59:55.355Z,93.50
2022-08-26T17:02:22.565Z,93.50
2022-08-26T17:04:51.866Z,93.50
2022-08-26T17:07:21.504Z,93.50
2022-08-26T17:09:51.175Z,93.30
2022-08-26T17:12:20.742Z,93.60
2022-08-26T17:14:48.322Z,93.40
2022-08-26T17:17:17.865Z,93.20
2022-08-26T17:19:49.803Z,93.30
2022-08-26T17:22:22.053Z,93.20
2022-08-26T17:24:51.555Z,93.20
2022-08-26T17:27:21.009Z,93.10
2022-08-26T17:29:50.373Z,93.10
2022-08-26T17:32:17.561Z,93.20
2022-08-26T17:34:44.776Z,93.20
2022-08-26T17:37:14.384Z,92.90
2022-08-26T17:39:43.988Z,93.10
2022-08-26T17:42:11.890Z,93.20
2022-08-26T17:44:41.990Z,93.20
2022-08-26T17:47:09.224Z,93.40
2022-08-26T17:49:36.398Z,93.30
2022-08-26T17:52:06.608Z,93.30
2022-08-26T17:54:36.815Z,93.30
2022-08-26T17:57:04.887Z,93.10
2022-08-26T17:59:38.648Z,93.10
2022-08-26T18:02:08.308Z,93.20
2022-08-26T18:04:37.844Z,93.20
2022-08-26T18:07:09.763Z,93.10
2022-08-26T18:09:36.983Z,93.10
2022-08-26T18:12:06.857Z,93.10
2022-08-26T18:14:35.294Z,93.10
2022-08-26T18:17:05.759Z,93.00
2022-08-26T18:19:32.943Z,93.00
2022-08-26T18:22:00.351Z,93.00
2022-08-26T18:24:30.394Z,93.00
2022-08-26T18:26:58.004Z,93.10
2022-08-26T18:29:25.536Z,93.10
2022-08-26T18:31:58.491Z,93.10
2022-08-26T18:34:31.559Z,93.20
2022-08-26T18:37:01.234Z,93.10
2022-08-26T18:39:28.573Z,93.20
2022-08-26T18:42:02.745Z,93.20
2022-08-26T18:44:32.712Z,93.10
2022-08-26T18:47:02.668Z,93.10
2022-08-26T18:49:29.924Z,93.20
2022-08-26T18:51:57.330Z,93.20
2022-08-26T18:54:24.594Z,93.20
2022-08-26T18:56:56.423Z,93.10
2022-08-26T18:59:28.414Z,93.20
2022-08-26T19:01:58.280Z,93.20
2022-08-26T19:04:27.940Z,93.20
2022-08-26T19:06:55.936Z,93.10
2022-08-26T19:09:26.439Z,93.10
2022-08-26T19:14:31.194Z,93.10
2022-08-26T19:16:58.499Z,93.10
2022-08-26T19:19:28.078Z,93.10
2022-08-26T19:21:57.694Z,93.00
2022-08-26T19:24:26.042Z,93.10
2022-08-26T19:27:00.017Z,93.00
2022-08-26T19:29:30.289Z,93.00
2022-08-26T19:32:04.198Z,93.00
2022-08-26T19:34:34.048Z,93.10
2022-08-26T19:37:01.300Z,93.00
2022-08-26T19:39:28.614Z,92.90
2022-08-26T19:42:00.597Z,93.00
2022-08-26T19:44:46.645Z,93.00
2022-08-26T19:47:18.928Z,93.10
2022-08-26T19:49:53.561Z,93.00
2022-08-26T19:52:24.418Z,93.00
2022-08-26T19:55:01.262Z,92.90
2022-08-26T19:57:31.052Z,93.00
2022-08-26T20:00:01.105Z,92.90
2022-08-26T20:02:28.857Z,93.10
2022-08-26T20:04:56.439Z,93.00
2022-08-26T20:07:25.895Z,93.00
2022-08-26T20:09:53.123Z,92.90
2022-08-26T20:12:23.073Z,93.10
2022-08-26T20:14:50.251Z,92.90
2022-08-26T20:17:19.689Z,92.90
2022-08-26T20:20:06.039Z,93.00
2022-08-26T20:22:44.616Z,93.00
2022-08-26T20:25:15.233Z,93.10
2022-08-26T20:27:42.956Z,93.10
2022-08-26T20:30:13.480Z,92.90
2022-08-26T20:32:42.160Z,93.00
2022-08-26T20:35:12.625Z,93.30
2022-08-26T20:37:42.145Z,93.10
2022-08-26T20:40:14.044Z,93.20
2022-08-26T20:42:41.397Z,93.10
2022-08-26T20:45:09.435Z,93.40
2022-08-26T20:47:41.715Z,93.10
2022-08-26T20:50:09.302Z,93.10
2022-08-26T20:52:41.466Z,93.10
2022-08-26T20:55:11.319Z,93.10
2022-08-26T20:57:43.280Z,93.10
2022-08-26T21:00:13.505Z,93.20
2022-08-26T21:02:41.650Z,93.10
2022-08-26T21:05:09.149Z,93.10
2022-08-26T21:07:39.409Z,93.10
2022-08-26T21:10:06.939Z,93.20
2022-08-26T21:12:36.677Z,93.20
2022-08-26T21:15:12.240Z,93.20
2022-08-26T21:17:39.383Z,93.10
2022-08-26T21:20:07.435Z,93.20
2022-08-26T21:22:34.570Z,93.20
2022-08-26T21:25:01.868Z,93.10
2022-08-26T21:27:31.594Z,93.20
2022-08-26T21:29:58.862Z,93.10
2022-08-26T21:32:26.203Z,93.10
2022-08-26T21:34:57.932Z,93.20
2022-08-26T21:37:28.535Z,93.10
2022-08-26T21:39:57.443Z,93.10
2022-08-26T21:42:26.346Z,93.10
2022-08-26T21:44:54.023Z,93.10
2022-08-26T21:47:24.431Z,93.10
2022-08-26T21:49:52.524Z,93.10
2022-08-26T21:52:20.138Z,93.10
2022-08-26T21:54:49.609Z,93.10
2022-08-26T21:57:17.488Z,93.10
2022-08-26T21:59:47.686Z,93.10
2022-08-26T22:02:14.939Z,93.10
2022-08-26T22:04:46.844Z,93.20
2022-08-26T22:07:17.966Z,93.10
2022-08-26T22:09:47.530Z,93.40
2022-08-26T22:12:17.061Z,93.10
2022-08-26T22:14:45.513Z,93.10
2022-08-26T22:17:15.959Z,93.00
2022-08-26T22:19:46.137Z,93.10
2022-08-26T22:22:16.202Z,93.10
2022-08-26T22:24:45.695Z,93.20
2022-08-26T22:27:15.489Z,93.00
2022-08-26T22:29:47.896Z,93.00
2022-08-26T22:32:18.568Z,93.20
2022-08-26T22:34:48.575Z,93.50
2022-08-26T22:37:15.726Z,93.30
2022-08-26T22:39:42.886Z,93.10
2022-08-26T22:42:10.422Z,93.30
2022-08-26T22:44:41.214Z,93.70
2022-08-26T22:47:10.844Z,93.40
2022-08-26T22:49:38.044Z,93.20
2022-08-26T22:52:05.329Z,93.20
2022-08-26T22:54:33.047Z,93.10
2022-08-26T22:57:04.610Z,93.10
2022-08-26T22:59:32.111Z,93.20
2022-08-26T23:01:59.298Z,93.20
2022-08-26T23:04:26.495Z,93.20
2022-08-26T23:06:54.140Z,93.10
2022-08-26T23:09:23.829Z,93.20
2022-08-26T23:11:56.551Z,93.30
2022-08-26T23:14:24.961Z,93.10
2022-08-26T23:16:55.791Z,93.10
2022-08-26T23:19:23.485Z,93.20
2022-08-26T23:21:53.114Z,93.00
2022-08-26T23:24:23.351Z,93.30
2022-08-26T23:26:52.702Z,93.00
2022-08-26T23:29:19.989Z,93.10
2022-08-26T23:31:52.263Z,93.00
2022-08-26T23:34:42.601Z,93.20
2022-08-26T23:37:09.854Z,93.00
2022-08-26T23:39:37.312Z,93.30
2022-08-26T23:42:08.167Z,92.90
2022-08-26T23:44:37.980Z,93.00
2022-08-26T23:47:12.435Z,93.20
2022-08-26T23:49:39.969Z,93.10
2022-08-26T23:52:26.454Z,92.90
2022-08-26T23:54:56.399Z,93.00
2022-08-26T23:57:26.237Z,93.00
2022-08-26T23:59:55.871Z,93.10
